FMEE

Roland Garros Airport

St Denis, Reunion
METAR FMEE 161400Z AUTO 22004KT 9999 BKN032 BKN058 OVC078 27/22 Q1015 NOSIG
Observed Flight Rules
Dec-16 @ 14:00 UTC (45 minutes ago) Visual Flight Rules
Wind Visibility Clouds
220° at 4 knots 10,000+ meters
  • Broken at 3,200' AGL
  • Broken at 5,800' AGL
  • Overcast at 7,800' AGL
Temperatures Readings
Current 27°C / 81°F
Dewpoint 22°C / 72°F
Humidity 74%
Altimeter 29.97" Hg
Pressure 1015 hPa
Elevation 25
METAR FMEE 161400Z AUTO 22004KT 9999 BKN032 BKN058 OVC078 27/22 Q1015 NOSIG
Observed Flight Rules
Dec-16 @ 14:00 UTC
(45 minutes ago)
VFR
Wind Visibility
220° at 4 knots 10,000+ meters
Clouds
  • Broken at 3,200' AGL
  • Broken at 5,800' AGL
  • Overcast at 7,800' AGL
Temperature Dewpoint
27°C / 81°F 22°C / 72°F
Humidity Altimeter Pressure
74% 29.97" Hg 1015 hPa